Aérodrome :
LOGIN :

S'inscrire | Disclaimer

   EN    FR    IT 

 










Légende :    VFR   VFR Marginal   IFR   IFR Intensif   IFR Très Intensif
Visi : 
Plafond : 
>= 8 km
>= 3000ft
5 à 8 km
1000 à 3000 ft
1500m à 5 km
500 à 1000 ft
800 à 1500m
200 à 500 ft
< 800m
< 200 ft
Symboles :   Orages  Brouillard  Fortes neiges  Fortes précipitations  Vent > 20 kt
SIGMETs :   Divers  Orages  Givrage  Turbulence  Onde Orograph.  Cendres Volcan.






- Altitude de l'aérodrome : 297 ft


EGVP - Middle Wallop

DERNIER METAR :
  • 221523Z 11012KT 9999 SCT014 SCT050 BKN100 09/07 Q0992 BECMG FEW01 RMK GRN BECMG BLU

METARs EXPIRÉS :
  • 221450Z 12013KT 9999 FEW014 SCT050 BKN100 09/07 Q0992 NOSIG RMK BLU BLU
  • 221440Z 12013KT 9999 SCT014 OVC100 09/07 Q0992 BECMG FEW014 RMK GRN BECMG BLU
  • 221424Z 11010KT 9999 FEW039 BKN050 OVC100 09/07 Q0992 NOSIG RMK BLU BLU
  • 221350Z 11008KT 9999 SCT040 OVC110 09/07 Q0992 NOSIG RMK BLU BLU
  • 221323Z 13011KT 9999 -RA FEW011 SCT039 OVC070 09/07 Q0992 NOSIG RMK BLU BLU
  • 221250Z 14011KT 9999 -RA FEW011 SCT040 OVC070 09/08 Q0993 TEMPO 7000 SCT012 RMK BLU TEMPO GRN
  • 221240Z 15011KT 9999 -RA SCT009 OVC070 09/08 Q0993 BECMG FEW010 RMK GRN BECMG BLU

TAF TAF EGVP
Valide du 22 à 15h jusqu'au 22 à 18h UTC


221328Z 2215/2218 15010KT 9999 FEW012 SCT030
PROB30
TEMPO 2215/2217 SCT012
ATIS : +44 1980 674 142



MET'MAP, la Météo Aéronautique d'un coup d'oeil ! - Copyright ORBIFLY Décembre 2007 - Disclaimer

ORBIFLY MET'MAP TEAM :

Programmation & Développement : Alexandra Zaïnal
Conception & Développement : Baudouin d'Aumeries
Co-Programmation & Développement : Marc-Olivier Méhu
Soutien technique & logistique : Manuel Goepfert

Contact : metmap@orbifly.com




SOURCES & CREDITS :

   NOAA